createdAt,value
2022-12-17T00:01:45.410Z,-0.24
2022-12-17T00:04:12.185Z,-0.31
2022-12-17T00:06:38.906Z,-0.39
2022-12-17T00:09:05.497Z,-0.53
2022-12-17T00:11:32.134Z,-0.68
2022-12-17T00:13:58.734Z,-0.64
2022-12-17T00:16:25.403Z,-0.58
2022-12-17T00:18:52.109Z,-0.69
2022-12-17T00:21:18.738Z,-0.82
2022-12-17T00:23:46.149Z,-0.91
2022-12-17T00:26:12.763Z,-0.86
2022-12-17T00:28:39.847Z,-0.78
2022-12-17T00:31:06.561Z,-0.65
2022-12-17T00:33:33.500Z,-0.45
2022-12-17T00:36:00.352Z,-0.73
2022-12-17T00:38:26.957Z,-0.94
2022-12-17T00:40:53.543Z,-0.83
2022-12-17T00:43:20.460Z,-0.57
2022-12-17T00:45:47.132Z,-0.86
2022-12-17T00:48:13.710Z,-0.70
2022-12-17T00:50:40.374Z,-0.66
2022-12-17T00:53:07.041Z,-0.53
2022-12-17T00:55:33.603Z,-0.69
2022-12-17T00:58:00.181Z,-0.64
2022-12-17T01:00:26.883Z,-0.90
2022-12-17T01:02:53.750Z,-0.77
2022-12-17T01:05:20.522Z,-0.59
2022-12-17T01:07:47.091Z,-0.57
2022-12-17T01:10:13.727Z,-0.60
2022-12-17T01:12:40.314Z,-0.50
2022-12-17T01:15:07.160Z,-0.30
2022-12-17T01:17:33.817Z,-0.35
2022-12-17T01:20:00.458Z,-0.65
2022-12-17T01:22:27.114Z,-0.61
2022-12-17T01:24:53.795Z,-0.84
2022-12-17T01:27:22.722Z,-0.88
2022-12-17T01:29:49.333Z,-0.87
2022-12-17T01:32:16.100Z,-0.59
2022-12-17T01:34:42.676Z,-0.40
2022-12-17T01:37:10.103Z,-0.62
2022-12-17T01:39:36.781Z,-0.54
2022-12-17T01:42:03.489Z,-0.79
2022-12-17T01:44:56.386Z,-0.63
2022-12-17T01:47:23.607Z,-0.34
2022-12-17T01:49:50.218Z,-0.38
2022-12-17T01:52:17.218Z,-0.37
2022-12-17T01:54:44.425Z,-0.21
2022-12-17T01:57:11.049Z,-0.10
2022-12-17T01:59:48.107Z,-0.27
2022-12-17T02:02:14.831Z,-0.29
2022-12-17T02:04:41.702Z,-0.44
2022-12-17T02:07:08.265Z,-0.83
2022-12-17T02:09:52.022Z,-0.90
2022-12-17T02:12:30.996Z,-0.73
2022-12-17T02:15:08.528Z,-0.65
2022-12-17T02:17:49.773Z,-0.70
2022-12-17T02:20:51.749Z,-0.44
2022-12-17T02:23:56.566Z,-0.33
2022-12-17T02:26:45.007Z,-0.44
2022-12-17T02:29:12.178Z,-0.30
2022-12-17T02:31:46.210Z,-0.28
2022-12-17T02:34:12.813Z,-0.32
2022-12-17T02:36:39.402Z,-0.57
2022-12-17T02:39:06.020Z,-0.72
2022-12-17T02:41:44.429Z,-0.79
2022-12-17T02:44:15.577Z,-0.63
2022-12-17T02:46:43.546Z,-0.46
2022-12-17T02:49:10.133Z,-0.45
2022-12-17T02:51:37.064Z,-0.91
2022-12-17T02:54:04.902Z,-0.93
2022-12-17T02:56:31.605Z,-0.84
2022-12-17T02:58:58.283Z,-0.92
2022-12-17T03:01:25.042Z,-0.85
2022-12-17T03:03:51.731Z,-0.77
2022-12-17T03:06:18.928Z,-1.09
2022-12-17T03:08:45.519Z,-0.84
2022-12-17T03:11:12.123Z,-1.20
2022-12-17T03:13:38.706Z,-1.10
2022-12-17T03:16:13.882Z,-1.07
2022-12-17T03:18:40.484Z,-1.13
2022-12-17T03:21:07.076Z,-1.21
2022-12-17T03:23:34.063Z,-1.26
2022-12-17T03:26:03.072Z,-1.38
2022-12-17T03:28:29.671Z,-1.31
2022-12-17T03:31:00.076Z,-1.33
2022-12-17T03:33:26.681Z,-1.42
2022-12-17T03:35:56.299Z,-1.15
2022-12-17T03:38:22.899Z,-1.17
2022-12-17T03:40:52.340Z,-1.26
2022-12-17T03:43:18.944Z,-1.24
2022-12-17T03:45:52.193Z,-1.21
2022-12-17T03:48:18.881Z,-1.26
2022-12-17T03:50:46.395Z,-1.10
2022-12-17T03:53:13.097Z,-1.25
2022-12-17T03:55:39.670Z,-1.31
2022-12-17T03:58:06.263Z,-1.23
2022-12-17T04:00:32.874Z,-1.27
2022-12-17T04:02:59.543Z,-1.17
2022-12-17T04:05:26.210Z,-1.30
2022-12-17T04:07:52.782Z,-1.28
2022-12-17T04:10:19.387Z,-1.34
2022-12-17T04:12:46.176Z,-1.17
2022-12-17T04:15:12.778Z,-1.03
2022-12-17T04:17:39.398Z,-1.38
2022-12-17T04:20:06.503Z,-1.65
2022-12-17T04:22:33.083Z,-1.61
2022-12-17T04:24:59.892Z,-1.87
2022-12-17T04:27:26.466Z,-1.93
2022-12-17T04:29:53.086Z,-1.94
2022-12-17T04:32:19.682Z,-1.72
2022-12-17T04:34:46.260Z,-2.07
2022-12-17T04:37:12.860Z,-2.00
2022-12-17T04:39:39.461Z,-1.92
2022-12-17T04:42:06.051Z,-2.19
2022-12-17T04:44:32.626Z,-2.19
2022-12-17T04:46:59.283Z,-2.15
2022-12-17T04:49:25.928Z,-2.20
2022-12-17T04:51:52.536Z,-2.30
2022-12-17T04:54:19.171Z,-2.35
2022-12-17T04:56:45.747Z,-2.09
2022-12-17T04:59:12.310Z,-2.09
2022-12-17T05:01:38.993Z,-2.20
2022-12-17T05:04:05.755Z,-2.07
2022-12-17T05:06:32.376Z,-2.20
2022-12-17T05:08:58.959Z,-2.15
2022-12-17T05:11:25.582Z,-2.22
2022-12-17T05:13:52.169Z,-2.06
2022-12-17T05:16:18.783Z,-1.98
2022-12-17T05:18:45.396Z,-2.25
2022-12-17T05:21:12.169Z,-2.33
2022-12-17T05:23:39.021Z,-2.10
2022-12-17T05:26:09.652Z,-2.16
2022-12-17T05:28:36.218Z,-2.33
2022-12-17T05:31:02.913Z,-2.17
2022-12-17T05:33:29.536Z,-2.21
2022-12-17T05:36:00.188Z,-2.10
2022-12-17T05:38:26.791Z,-2.18
2022-12-17T05:40:56.986Z,-2.34
2022-12-17T05:43:23.627Z,-2.15
2022-12-17T05:45:50.988Z,-2.25
2022-12-17T05:48:17.569Z,-2.20
2022-12-17T05:50:49.544Z,-2.30
2022-12-17T05:53:16.122Z,-2.18
2022-12-17T05:55:42.696Z,-2.16
2022-12-17T05:58:11.072Z,-2.22
2022-12-17T06:00:37.648Z,-2.33
2022-12-17T06:03:04.904Z,-2.28
2022-12-17T06:05:31.554Z,-2.40
2022-12-17T06:08:08.615Z,-2.27
2022-12-17T06:10:35.234Z,-2.32
2022-12-17T06:13:01.828Z,-2.36
2022-12-17T06:15:28.739Z,-2.38
2022-12-17T06:17:56.908Z,-2.52
2022-12-17T06:20:23.517Z,-2.46
2022-12-17T06:23:10.582Z,-2.55
2022-12-17T06:25:37.276Z,-2.61
2022-12-17T06:28:03.948Z,-2.46
2022-12-17T06:30:30.568Z,-2.42
2022-12-17T06:33:04.912Z,-2.52
2022-12-17T06:35:31.694Z,-2.56
2022-12-17T06:38:00.271Z,-2.45
2022-12-17T06:40:26.850Z,-2.51
2022-12-17T06:42:55.142Z,-2.19
2022-12-17T06:45:21.835Z,-2.21
2022-12-17T06:47:48.417Z,-1.96
2022-12-17T06:50:15.065Z,-2.06
2022-12-17T06:52:41.645Z,-2.23
2022-12-17T06:55:08.658Z,-2.28
2022-12-17T06:57:39.174Z,-2.53
2022-12-17T07:00:08.514Z,-2.32
2022-12-17T07:02:35.192Z,-2.46
2022-12-17T07:05:01.871Z,-2.41
2022-12-17T07:07:28.454Z,-2.34
2022-12-17T07:09:55.058Z,-2.36
2022-12-17T07:12:23.885Z,-2.30
2022-12-17T07:14:50.475Z,-2.09
2022-12-17T07:17:17.051Z,-2.36
2022-12-17T07:19:43.678Z,-2.26
2022-12-17T07:22:10.273Z,-2.26
2022-12-17T07:24:36.878Z,-2.42
2022-12-17T07:27:03.624Z,-2.21
2022-12-17T07:29:30.210Z,-2.49
2022-12-17T07:31:56.837Z,-2.61
2022-12-17T07:34:23.878Z,-2.33
2022-12-17T07:36:50.495Z,-2.50
2022-12-17T07:39:17.189Z,-2.54
2022-12-17T07:41:43.791Z,-2.67
2022-12-17T07:44:10.551Z,-2.52
2022-12-17T07:46:37.174Z,-2.58
2022-12-17T07:49:03.742Z,-2.72
2022-12-17T07:51:30.431Z,-2.66
2022-12-17T07:53:57.053Z,-2.67
2022-12-17T07:56:23.673Z,-2.63
2022-12-17T07:58:50.306Z,-2.61
2022-12-17T08:01:17.239Z,-2.53
2022-12-17T08:03:43.962Z,-2.52
2022-12-17T08:06:10.605Z,-2.55
2022-12-17T08:08:37.178Z,-2.53
2022-12-17T08:11:03.916Z,-2.59
2022-12-17T08:13:30.492Z,-2.50
2022-12-17T08:15:57.097Z,-2.45
2022-12-17T08:18:26.662Z,-2.37
2022-12-17T08:20:54.366Z,-2.46
2022-12-17T08:23:20.948Z,-2.46
2022-12-17T08:25:47.606Z,-2.55
2022-12-17T08:28:41.090Z,-2.46
2022-12-17T08:31:01.629Z,-2.44
2022-12-17T08:33:28.266Z,-2.51
2022-12-17T08:35:56.956Z,-2.45
2022-12-17T08:38:23.561Z,-2.35
2022-12-17T08:40:50.551Z,-2.24
2022-12-17T08:43:17.699Z,-2.31
2022-12-17T08:45:52.151Z,-2.23
2022-12-17T08:48:18.765Z,-2.34
2022-12-17T08:50:45.350Z,-2.19
2022-12-17T08:53:11.938Z,-2.08
2022-12-17T08:55:38.521Z,-2.20
2022-12-17T08:58:05.138Z,-2.24
2022-12-17T09:00:31.707Z,-2.02
2022-12-17T09:03:02.578Z,-1.94
2022-12-17T09:05:29.279Z,-2.09
2022-12-17T09:08:04.793Z,-2.06
2022-12-17T09:10:31.387Z,-2.06
2022-12-17T09:13:04.970Z,-1.99
2022-12-17T09:15:32.306Z,-1.91
2022-12-17T09:17:58.982Z,-1.94
2022-12-17T09:20:29.253Z,-1.81
2022-12-17T09:22:56.541Z,-1.84
2022-12-17T09:25:23.254Z,-2.02
2022-12-17T09:27:49.834Z,-1.85
2022-12-17T09:30:16.558Z,-1.99
2022-12-17T09:32:43.142Z,-2.05
2022-12-17T09:35:09.842Z,-2.03
2022-12-17T09:37:36.500Z,-1.99
2022-12-17T09:40:03.180Z,-2.09
2022-12-17T09:42:41.857Z,-1.95
2022-12-17T09:45:12.821Z,-1.94
2022-12-17T09:47:51.164Z,-1.95
2022-12-17T09:50:17.952Z,-2.00
2022-12-17T09:52:44.908Z,-2.03
2022-12-17T09:55:34.137Z,-2.15
2022-12-17T09:58:02.455Z,-1.96
2022-12-17T10:00:29.406Z,-2.20
2022-12-17T10:02:56.442Z,-2.23
2022-12-17T10:05:27.715Z,-2.16
2022-12-17T10:07:54.448Z,-2.21
2022-12-17T10:10:22.478Z,-2.07
2022-12-17T10:12:49.052Z,-1.97
2022-12-17T10:15:15.905Z,-1.95
2022-12-17T10:17:42.511Z,-1.93
2022-12-17T10:20:21.382Z,-1.90
2022-12-17T10:22:50.391Z,-1.78
2022-12-17T10:25:18.246Z,-1.68
2022-12-17T10:27:44.812Z,-1.65
2022-12-17T10:30:15.818Z,-1.82
2022-12-17T10:32:42.459Z,-1.88
2022-12-17T10:35:14.715Z,-1.80
2022-12-17T10:37:41.409Z,-1.78
2022-12-17T10:40:23.384Z,-1.84
2022-12-17T10:42:49.951Z,-1.75
2022-12-17T10:45:30.061Z,-1.65
2022-12-17T10:47:56.652Z,-1.75
2022-12-17T10:50:24.479Z,-1.81
2022-12-17T10:52:51.632Z,-1.77
2022-12-17T10:55:29.175Z,-1.63
2022-12-17T10:58:02.141Z,-1.51
2022-12-17T11:00:38.585Z,-1.09
2022-12-17T11:03:05.453Z,-1.34
2022-12-17T11:05:35.941Z,-1.38
2022-12-17T11:08:03.427Z,-1.37
2022-12-17T11:10:33.991Z,-1.02
2022-12-17T11:13:11.642Z,-0.90
2022-12-17T11:15:44.277Z,-0.77
2022-12-17T11:18:29.499Z,-0.62
2022-12-17T11:21:10.985Z,-0.66
2022-12-17T11:23:42.890Z,-0.80
2022-12-17T11:26:13.778Z,-0.61
2022-12-17T11:28:40.507Z,-0.46
2022-12-17T11:31:39.234Z,-0.36
2022-12-17T11:34:19.211Z,-0.57
2022-12-17T11:37:26.269Z,-0.69
2022-12-17T11:40:11.061Z,-0.48
2022-12-17T11:42:44.669Z,-0.85
2022-12-17T11:45:36.337Z,-0.77
2022-12-17T11:48:17.128Z,-0.99
2022-12-17T11:50:50.548Z,-1.18
2022-12-17T11:53:54.068Z,-1.29
2022-12-17T11:56:27.715Z,-1.23
2022-12-17T11:59:30.148Z,-0.94
2022-12-17T12:02:20.421Z,-1.13
2022-12-17T12:05:10.637Z,-1.22
2022-12-17T12:07:43.518Z,-1.06
2022-12-17T12:10:42.107Z,-1.15
2022-12-17T12:13:36.419Z,-1.20
2022-12-17T12:16:20.504Z,-1.07
2022-12-17T12:18:47.053Z,-1.21
2022-12-17T12:21:13.640Z,-1.36
2022-12-17T12:24:08.098Z,-1.25
2022-12-17T12:26:51.527Z,-1.48
2022-12-17T12:29:30.293Z,-1.62
2022-12-17T12:32:14.132Z,-1.65
2022-12-17T12:34:43.627Z,-1.62
2022-12-17T12:37:15.578Z,-1.44
2022-12-17T12:40:15.629Z,-1.65
2022-12-17T12:43:08.681Z,-1.64
2022-12-17T12:46:07.438Z,-1.73
2022-12-17T12:48:46.908Z,-1.77
2022-12-17T12:51:25.563Z,-1.71
2022-12-17T12:54:23.996Z,-1.74
2022-12-17T12:56:50.583Z,-1.78
2022-12-17T12:59:26.545Z,-1.68
2022-12-17T13:01:53.394Z,-1.72
2022-12-17T13:04:33.668Z,-1.67
2022-12-17T13:07:00.266Z,-1.57
2022-12-17T13:09:30.915Z,-1.58
2022-12-17T13:12:00.580Z,-1.66
2022-12-17T13:25:36.583Z,-1.41
2022-12-17T13:28:04.044Z,-1.46
2022-12-17T13:30:30.767Z,-1.48
2022-12-17T13:33:09.656Z,-1.28
2022-12-17T13:35:58.185Z,-1.37
2022-12-17T13:38:35.205Z,-1.28
2022-12-17T13:41:12.627Z,-1.15
2022-12-17T13:43:51.251Z,-1.45
2022-12-17T13:46:19.979Z,-1.42
2022-12-17T13:48:55.100Z,-1.36
2022-12-17T13:51:22.686Z,-1.69
2022-12-17T13:54:01.445Z,-1.66
2022-12-17T13:56:31.079Z,-1.80
2022-12-17T13:59:03.171Z,-1.70
2022-12-17T14:01:33.255Z,-1.59
2022-12-17T14:04:06.631Z,-1.84
2022-12-17T14:06:37.851Z,-1.85
2022-12-17T14:09:05.569Z,-1.75
2022-12-17T14:11:33.661Z,-1.99
2022-12-17T14:14:01.343Z,-1.95
2022-12-17T14:16:28.287Z,-2.03
2022-12-17T14:18:57.236Z,-2.03
2022-12-17T14:21:26.288Z,-2.06
2022-12-17T14:23:54.469Z,-2.10
2022-12-17T14:26:21.072Z,-2.10
2022-12-17T14:28:55.595Z,-2.21
2022-12-17T14:31:31.597Z,-2.36
2022-12-17T14:34:09.608Z,-2.22
2022-12-17T14:36:39.167Z,-2.28
2022-12-17T14:39:26.790Z,-2.29
2022-12-17T14:41:56.327Z,-2.45
2022-12-17T14:44:26.642Z,-2.45
2022-12-17T14:47:14.414Z,-2.42
2022-12-17T14:50:02.643Z,-2.45
2022-12-17T14:52:50.083Z,-2.37
2022-12-17T14:55:22.793Z,-2.38
2022-12-17T14:57:50.492Z,-2.08
2022-12-17T15:00:17.624Z,-2.49
2022-12-17T15:02:51.567Z,-2.61
2022-12-17T15:05:18.488Z,-2.64
2022-12-17T15:07:45.356Z,-2.60
2022-12-17T15:10:13.949Z,-2.55
2022-12-17T15:12:44.231Z,-2.64
2022-12-17T15:15:15.277Z,-2.37
2022-12-17T15:17:42.279Z,-2.61
2022-12-17T15:20:20.530Z,-2.62
2022-12-17T15:22:48.009Z,-2.51
2022-12-17T15:25:16.788Z,-2.45
2022-12-17T15:27:44.141Z,-2.58
2022-12-17T15:30:15.714Z,-2.41
2022-12-17T15:32:42.641Z,-2.42
2022-12-17T15:35:11.521Z,-2.65
2022-12-17T15:37:38.443Z,-2.61
2022-12-17T15:40:06.577Z,-2.66
2022-12-17T15:42:33.177Z,-2.74
2022-12-17T15:44:59.759Z,-2.67
2022-12-17T15:47:26.345Z,-2.59
2022-12-17T15:49:52.930Z,-2.63
2022-12-17T15:52:19.522Z,-2.68
2022-12-17T15:54:46.097Z,-2.77
2022-12-17T15:57:18.215Z,-2.73
2022-12-17T15:59:45.239Z,-2.80
2022-12-17T16:02:12.101Z,-2.56
2022-12-17T16:04:38.970Z,-2.59
2022-12-17T16:07:05.704Z,-2.51
2022-12-17T16:09:32.350Z,-2.71
2022-12-17T16:11:58.976Z,-2.51
2022-12-17T16:14:26.242Z,-2.85
2022-12-17T16:16:52.955Z,-2.90
2022-12-17T16:19:19.539Z,-2.94
2022-12-17T16:21:47.130Z,-2.90
2022-12-17T16:24:14.002Z,-2.94
2022-12-17T16:26:40.571Z,-2.83
2022-12-17T16:29:07.321Z,-2.66
2022-12-17T16:31:33.937Z,-2.54
2022-12-17T16:34:00.541Z,-2.46
2022-12-17T16:36:27.147Z,-2.39
2022-12-17T16:38:54.858Z,-2.55
2022-12-17T16:41:22.420Z,-2.44
2022-12-17T16:43:49.045Z,-2.62
2022-12-17T16:46:28.776Z,-2.57
2022-12-17T16:48:57.594Z,-2.41
2022-12-17T16:51:28.988Z,-2.75
2022-12-17T16:53:57.421Z,-2.76
2022-12-17T16:56:26.843Z,-2.82
2022-12-17T16:58:54.783Z,-2.59
2022-12-17T17:01:24.142Z,-2.64
2022-12-17T17:03:50.918Z,-3.05
2022-12-17T17:06:18.887Z,-2.99
2022-12-17T17:08:45.531Z,-2.62
2022-12-17T17:11:14.274Z,-2.93
2022-12-17T17:13:41.417Z,-2.99
2022-12-17T17:16:09.836Z,-2.75
2022-12-17T17:18:37.684Z,-2.99
2022-12-17T17:21:19.784Z,-3.01
2022-12-17T17:23:48.034Z,-2.96
2022-12-17T17:26:15.892Z,-2.80
2022-12-17T17:28:42.980Z,-2.67
2022-12-17T17:31:13.195Z,-2.82
2022-12-17T17:33:42.058Z,-2.63
2022-12-17T17:36:11.822Z,-2.70
2022-12-17T17:38:40.310Z,-2.73
2022-12-17T17:41:10.298Z,-2.86
2022-12-17T17:43:36.884Z,-2.79
2022-12-17T17:46:09.981Z,-2.75
2022-12-17T17:48:37.120Z,-2.65
2022-12-17T17:51:07.468Z,-2.62
2022-12-17T17:53:35.439Z,-2.32
2022-12-17T17:56:07.140Z,-2.83
2022-12-17T17:58:34.781Z,-2.93
2022-12-17T18:01:09.137Z,-2.84
2022-12-17T18:03:37.892Z,-2.43
2022-12-17T18:06:06.316Z,-2.74
2022-12-17T18:08:34.527Z,-2.61
2022-12-17T18:11:02.996Z,-2.43
2022-12-17T18:13:29.636Z,-2.55
2022-12-17T18:16:00.967Z,-2.85
2022-12-17T18:18:27.581Z,-2.80
2022-12-17T18:21:15.439Z,-2.85
2022-12-17T18:23:42.669Z,-2.59
2022-12-17T18:26:17.901Z,-2.46
2022-12-17T18:28:45.525Z,-2.68
2022-12-17T18:31:18.046Z,-2.73
2022-12-17T18:33:57.312Z,-2.67
2022-12-17T18:36:29.508Z,-2.62
2022-12-17T18:39:02.154Z,-3.12
2022-12-17T18:41:28.813Z,-2.74
2022-12-17T18:43:56.172Z,-2.91
2022-12-17T18:46:23.514Z,-2.84
2022-12-17T18:48:50.305Z,-3.15
2022-12-17T18:51:17.087Z,-3.42
2022-12-17T19:00:47.596Z,-2.79
2022-12-17T19:03:14.290Z,-2.70
2022-12-17T19:05:45.785Z,-2.93
2022-12-17T19:08:13.604Z,-3.35
2022-12-17T19:10:40.272Z,-3.03
2022-12-17T19:13:06.950Z,-3.08
2022-12-17T19:15:35.324Z,-2.95
2022-12-17T19:18:02.039Z,-2.90
2022-12-17T19:20:28.652Z,-2.76
2022-12-17T19:22:55.265Z,-2.84
2022-12-17T19:25:21.905Z,-3.18
2022-12-17T19:27:48.514Z,-3.24
2022-12-17T19:30:15.245Z,-3.41
2022-12-17T19:32:41.861Z,-3.29
2022-12-17T19:35:08.583Z,-3.31
2022-12-17T19:37:35.183Z,-3.09
2022-12-17T19:40:01.870Z,-2.96
2022-12-17T19:42:33.465Z,-3.17
2022-12-17T19:45:03.983Z,-2.89
2022-12-17T19:47:32.756Z,-3.23
2022-12-17T19:49:59.334Z,-3.44
2022-12-17T19:52:25.957Z,-2.98
2022-12-17T19:54:52.547Z,-3.21
2022-12-17T19:57:19.209Z,-3.33
2022-12-17T19:59:45.778Z,-3.11
2022-12-17T20:02:12.713Z,-3.38
2022-12-17T20:04:39.471Z,-3.40
2022-12-17T20:07:06.071Z,-3.45
2022-12-17T20:09:32.723Z,-3.36
2022-12-17T20:11:59.292Z,-3.12
2022-12-17T20:14:25.884Z,-3.02
2022-12-17T20:16:59.279Z,-2.90
2022-12-17T20:19:31.450Z,-3.12
2022-12-17T20:21:59.891Z,-2.68
2022-12-17T20:24:31.050Z,-2.92
2022-12-17T20:26:59.656Z,-3.09
2022-12-17T20:29:26.828Z,-3.18
2022-12-17T20:31:53.823Z,-3.32
2022-12-17T20:34:21.064Z,-3.10
2022-12-17T20:36:49.526Z,-3.05
2022-12-17T20:39:16.345Z,-3.27
2022-12-17T20:41:43.979Z,-2.81
2022-12-17T20:44:13.152Z,-2.95
2022-12-17T20:46:39.954Z,-2.89
2022-12-17T20:49:08.021Z,-2.85
2022-12-17T20:51:34.841Z,-2.88
2022-12-17T20:54:02.231Z,-3.22
2022-12-17T20:56:31.953Z,-3.21
2022-12-17T20:59:04.495Z,-3.22
2022-12-17T21:01:33.672Z,-3.08
2022-12-17T21:04:01.518Z,-3.39
2022-12-17T21:06:31.229Z,-3.57
2022-12-17T21:08:58.435Z,-3.65
2022-12-17T21:11:27.584Z,-3.70
2022-12-17T21:13:55.136Z,-3.54
2022-12-17T21:16:28.027Z,-3.78
2022-12-17T21:18:56.104Z,-3.66
2022-12-17T21:21:26.001Z,-3.65
2022-12-17T21:23:52.833Z,-3.72
2022-12-17T21:26:22.709Z,-3.43
2022-12-17T21:28:51.496Z,-3.63
2022-12-17T21:31:28.507Z,-3.60
2022-12-17T21:33:58.123Z,-3.69
2022-12-17T21:36:27.857Z,-3.65
2022-12-17T21:38:54.999Z,-3.80
2022-12-17T21:41:30.660Z,-3.83
2022-12-17T21:43:59.944Z,-3.61
2022-12-17T21:46:27.612Z,-3.85
2022-12-17T21:48:55.715Z,-3.63
2022-12-17T21:51:23.288Z,-3.80
2022-12-17T21:53:55.148Z,-4.07
2022-12-17T21:56:22.024Z,-3.85
2022-12-17T21:58:49.491Z,-3.93
2022-12-17T22:01:19.845Z,-3.75
2022-12-17T22:03:53.393Z,-3.83
2022-12-17T22:06:26.917Z,-3.86
2022-12-17T22:09:03.155Z,-3.67
2022-12-17T22:11:41.939Z,-3.73
2022-12-17T22:14:15.578Z,-3.94
2022-12-17T22:16:48.361Z,-3.93
2022-12-17T22:19:22.167Z,-4.14
2022-12-17T22:21:51.062Z,-3.82
2022-12-17T22:24:22.507Z,-3.76
2022-12-17T22:26:49.243Z,-3.59
2022-12-17T22:29:16.796Z,-3.78
2022-12-17T22:31:43.357Z,-3.50
2022-12-17T22:35:09.205Z,-3.61
2022-12-17T22:40:17.361Z,-3.92
2022-12-17T22:44:31.563Z,-3.94
2022-12-17T22:44:43.213Z,-3.75
2022-12-17T22:45:18.882Z,-3.71
2022-12-17T22:47:46.011Z,-3.62
2022-12-17T22:50:12.720Z,-3.59
2022-12-17T22:52:39.818Z,-3.64
2022-12-17T22:55:07.311Z,-3.67
2022-12-17T22:57:36.909Z,-3.86
2022-12-17T23:00:30.812Z,-4.01
2022-12-17T23:02:57.746Z,-4.00
2022-12-17T23:05:26.292Z,-3.98
2022-12-17T23:07:53.254Z,-3.79
2022-12-17T23:10:21.127Z,-4.00
2022-12-17T23:12:48.354Z,-3.92
2022-12-17T23:15:14.989Z,-3.72
2022-12-17T23:17:41.588Z,-3.92
2022-12-17T23:20:08.822Z,-3.97
2022-12-17T23:22:35.569Z,-3.99
2022-12-17T23:25:02.190Z,-3.85
2022-12-17T23:27:28.776Z,-3.79
2022-12-17T23:29:55.392Z,-3.84
2022-12-17T23:32:22.005Z,-3.69
2022-12-17T23:34:48.663Z,-3.74
2022-12-17T23:37:15.280Z,-3.85
2022-12-17T23:39:41.972Z,-3.46
2022-12-17T23:42:08.662Z,-3.42
2022-12-17T23:44:35.271Z,-3.57
2022-12-17T23:47:01.982Z,-3.71
2022-12-17T23:49:28.638Z,-3.84
2022-12-17T23:51:55.340Z,-3.63
2022-12-17T23:54:22.019Z,-3.56
2022-12-17T23:56:48.611Z,-3.54
2022-12-17T23:59:15.271Z,-3.46
